createdAt,value
2022-08-29T00:00:06.640Z,14.87
2022-08-29T00:02:34.332Z,14.82
2022-08-29T00:05:02.377Z,14.81
2022-08-29T00:07:28.874Z,14.80
2022-08-29T00:09:55.170Z,14.77
2022-08-29T00:12:21.496Z,14.76
2022-08-29T00:14:47.827Z,14.75
2022-08-29T00:17:14.156Z,14.75
2022-08-29T00:19:41.835Z,14.72
2022-08-29T00:22:08.199Z,14.68
2022-08-29T00:24:34.533Z,14.65
2022-08-29T00:27:00.852Z,14.63
2022-08-29T00:29:27.495Z,14.61
2022-08-29T00:31:53.884Z,14.58
2022-08-29T00:34:20.359Z,14.54
2022-08-29T00:36:49.067Z,14.52
2022-08-29T00:39:15.879Z,14.49
2022-08-29T00:41:42.543Z,14.46
2022-08-29T00:44:08.856Z,14.43
2022-08-29T00:46:43.297Z,14.42
2022-08-29T00:49:12.450Z,14.40
2022-08-29T00:51:39.836Z,14.37
2022-08-29T00:54:09.324Z,14.33
2022-08-29T00:56:36.762Z,14.28
2022-08-29T00:59:06.990Z,14.25
2022-08-29T01:01:33.552Z,14.22
2022-08-29T01:03:59.979Z,14.18
2022-08-29T01:06:27.039Z,14.14
2022-08-29T01:08:57.705Z,14.11
2022-08-29T01:11:28.105Z,14.10
2022-08-29T01:13:54.768Z,14.05
2022-08-29T01:16:21.618Z,14.01
2022-08-29T01:18:51.134Z,13.97
2022-08-29T01:21:21.901Z,13.94
2022-08-29T01:23:52.826Z,13.89
2022-08-29T01:26:21.183Z,13.87
2022-08-29T01:28:51.337Z,13.83
2022-08-29T01:31:38.608Z,13.83
2022-08-29T01:34:05.560Z,13.82
2022-08-29T01:36:33.300Z,13.83
2022-08-29T01:38:59.691Z,13.87
2022-08-29T01:41:27.771Z,13.86
2022-08-29T01:43:55.431Z,13.85
2022-08-29T01:46:24.122Z,13.80
2022-08-29T01:48:50.461Z,13.75
2022-08-29T01:51:16.809Z,13.72
2022-08-29T01:53:43.228Z,13.67
2022-08-29T01:56:10.487Z,13.64
2022-08-29T01:58:38.257Z,13.59
2022-08-29T02:01:04.793Z,13.51
2022-08-29T02:03:31.199Z,13.47
2022-08-29T02:05:59.621Z,13.46
2022-08-29T02:08:25.934Z,13.47
2022-08-29T02:10:52.226Z,13.50
2022-08-29T02:13:18.546Z,13.53
2022-08-29T02:15:46.199Z,13.53
2022-08-29T02:18:12.510Z,13.51
2022-08-29T02:20:38.862Z,13.49
2022-08-29T02:23:10.609Z,13.46
2022-08-29T02:25:43.722Z,13.45
2022-08-29T02:28:10.404Z,13.48
2022-08-29T02:30:36.710Z,13.49
2022-08-29T02:33:04.942Z,13.49
2022-08-29T02:35:35.025Z,13.44
2022-08-29T02:38:02.927Z,13.38
2022-08-29T02:40:31.621Z,13.35
2022-08-29T02:42:58.818Z,13.30
2022-08-29T02:45:25.155Z,13.23
2022-08-29T02:47:51.462Z,13.21
2022-08-29T02:50:19.675Z,13.22
2022-08-29T02:52:46.171Z,13.22
2022-08-29T02:55:13.899Z,13.25
2022-08-29T02:57:40.240Z,13.32
2022-08-29T03:00:09.628Z,13.28
2022-08-29T03:02:36.012Z,13.24
2022-08-29T03:05:02.446Z,13.24
2022-08-29T03:07:30.102Z,13.23
2022-08-29T03:09:56.402Z,13.11
2022-08-29T03:12:22.759Z,13.10
2022-08-29T03:14:49.071Z,13.06
2022-08-29T03:17:15.792Z,13.00
2022-08-29T03:19:42.112Z,12.98
2022-08-29T03:22:08.739Z,12.98
2022-08-29T03:24:36.498Z,12.98
2022-08-29T03:27:02.944Z,12.97
2022-08-29T03:29:29.347Z,12.97
2022-08-29T03:31:55.892Z,12.94
2022-08-29T03:34:22.199Z,12.95
2022-08-29T03:36:48.515Z,12.94
2022-08-29T03:39:14.833Z,12.91
2022-08-29T03:41:42.550Z,12.88
2022-08-29T03:44:08.906Z,12.85
2022-08-29T03:46:35.393Z,12.83
2022-08-29T03:49:01.954Z,12.82
2022-08-29T03:51:29.303Z,12.82
2022-08-29T03:53:55.939Z,12.83
2022-08-29T03:56:22.275Z,12.85
2022-08-29T03:58:53.071Z,12.87
2022-08-29T04:01:20.572Z,12.88
2022-08-29T04:03:47.214Z,12.91
2022-08-29T04:06:13.506Z,12.93
2022-08-29T04:08:39.826Z,12.96
2022-08-29T04:11:08.844Z,12.98
2022-08-29T04:13:35.157Z,12.98
2022-08-29T04:16:08.122Z,12.98
2022-08-29T04:18:34.450Z,12.99
2022-08-29T04:21:01.425Z,13.00
2022-08-29T04:23:27.751Z,13.00
2022-08-29T04:26:12.520Z,12.99
2022-08-29T04:28:40.458Z,12.98
2022-08-29T04:31:11.321Z,13.01
2022-08-29T04:33:37.674Z,13.02
2022-08-29T04:36:05.103Z,13.05
2022-08-29T04:38:31.428Z,13.06
2022-08-29T04:40:57.914Z,13.05
2022-08-29T04:43:24.211Z,13.04
2022-08-29T04:45:53.819Z,13.02
2022-08-29T04:48:21.504Z,13.02
2022-08-29T04:50:52.842Z,13.05
2022-08-29T04:53:19.174Z,13.02
2022-08-29T04:55:45.502Z,13.03
2022-08-29T04:58:11.806Z,13.04
2022-08-29T05:00:38.383Z,13.06
2022-08-29T05:03:04.775Z,13.06
2022-08-29T05:05:32.478Z,13.08
2022-08-29T05:07:58.796Z,13.09
2022-08-29T05:10:25.135Z,13.11
2022-08-29T05:12:51.483Z,13.16
2022-08-29T05:15:18.010Z,13.19
2022-08-29T05:17:44.501Z,13.21
2022-08-29T05:20:11.492Z,13.19
2022-08-29T05:22:39.730Z,13.17
2022-08-29T05:25:06.685Z,13.16
2022-08-29T05:27:32.990Z,13.19
2022-08-29T05:29:59.318Z,13.20
2022-08-29T05:32:25.651Z,13.23
2022-08-29T05:34:51.982Z,13.29
2022-08-29T05:37:20.371Z,13.32
2022-08-29T05:39:48.700Z,13.36
2022-08-29T05:42:15.545Z,13.40
2022-08-29T05:44:41.865Z,13.47
2022-08-29T05:47:09.318Z,13.54
2022-08-29T05:49:36.064Z,13.59
2022-08-29T05:52:02.643Z,13.67
2022-08-29T05:54:30.225Z,13.71
2022-08-29T05:56:58.046Z,13.73
2022-08-29T05:59:24.419Z,13.78
2022-08-29T06:01:50.960Z,13.82
2022-08-29T06:04:17.359Z,13.88
2022-08-29T06:06:43.667Z,13.95
2022-08-29T06:09:11.100Z,13.99
2022-08-29T06:11:37.435Z,14.04
2022-08-29T06:14:05.579Z,14.07
2022-08-29T06:16:31.975Z,14.10
2022-08-29T06:18:58.578Z,14.11
2022-08-29T06:21:25.291Z,14.12
2022-08-29T06:23:51.629Z,14.16
2022-08-29T06:26:18.459Z,14.20
2022-08-29T06:28:45.521Z,14.27
2022-08-29T06:31:14.615Z,14.35
2022-08-29T06:33:41.278Z,14.44
2022-08-29T06:36:08.814Z,14.51
2022-08-29T06:38:35.834Z,14.62
2022-08-29T06:41:02.591Z,14.67
2022-08-29T06:43:28.920Z,14.74
2022-08-29T06:45:55.251Z,14.80
2022-08-29T06:48:25.322Z,14.89
2022-08-29T06:50:55.242Z,14.99
2022-08-29T06:53:31.727Z,15.09
2022-08-29T06:56:02.787Z,15.24
2022-08-29T06:58:29.375Z,15.37
2022-08-29T07:00:55.687Z,15.50
2022-08-29T07:03:23.351Z,15.59
2022-08-29T07:05:51.114Z,15.70
2022-08-29T07:08:17.440Z,15.76
2022-08-29T07:10:44.482Z,15.80
2022-08-29T07:13:10.825Z,15.84
2022-08-29T07:15:37.217Z,15.83
2022-08-29T07:18:03.959Z,15.86
2022-08-29T07:20:31.604Z,15.92
2022-08-29T07:22:57.919Z,15.95
2022-08-29T07:25:24.302Z,15.99
2022-08-29T07:27:53.444Z,16.05
2022-08-29T07:30:21.024Z,16.10
2022-08-29T07:32:47.379Z,16.09
2022-08-29T07:35:18.377Z,16.10
2022-08-29T07:37:52.300Z,16.18
2022-08-29T07:40:18.733Z,16.25
2022-08-29T07:42:45.166Z,16.34
2022-08-29T07:45:12.011Z,16.39
2022-08-29T07:47:38.627Z,16.48
2022-08-29T07:50:06.302Z,16.61
2022-08-29T07:52:32.701Z,16.70
2022-08-29T07:55:00.413Z,16.79
2022-08-29T07:57:26.956Z,16.89
2022-08-29T07:59:53.304Z,17.00
2022-08-29T08:02:19.681Z,17.13
2022-08-29T08:04:46.109Z,17.23
2022-08-29T08:07:13.812Z,17.36
2022-08-29T08:09:40.443Z,17.45
2022-08-29T08:12:08.527Z,17.56
2022-08-29T08:14:35.368Z,17.65
2022-08-29T08:17:01.807Z,17.62
2022-08-29T08:19:28.150Z,17.62
2022-08-29T08:21:54.476Z,17.60
2022-08-29T08:24:21.210Z,17.62
2022-08-29T08:26:47.610Z,17.73
2022-08-29T08:29:15.626Z,17.94
2022-08-29T08:31:42.479Z,18.17
2022-08-29T08:34:08.805Z,18.35
2022-08-29T08:36:40.977Z,18.42
2022-08-29T08:39:07.794Z,18.59
2022-08-29T08:41:40.338Z,18.70
2022-08-29T08:44:10.174Z,18.88
2022-08-29T08:46:40.515Z,19.08
2022-08-29T08:49:09.840Z,19.28
2022-08-29T08:51:38.631Z,19.41
2022-08-29T08:54:08.500Z,19.43
2022-08-29T08:56:37.020Z,19.45
2022-08-29T08:59:05.238Z,19.51
2022-08-29T09:01:33.300Z,19.61
2022-08-29T09:04:08.234Z,19.52
2022-08-29T09:06:44.746Z,19.42
2022-08-29T09:09:14.695Z,19.38
2022-08-29T09:11:48.028Z,19.39
2022-08-29T09:14:21.452Z,19.49
2022-08-29T09:16:49.585Z,19.51
2022-08-29T09:19:17.558Z,19.62
2022-08-29T09:21:46.919Z,19.75
2022-08-29T09:24:17.824Z,19.94
2022-08-29T09:26:44.175Z,20.06
2022-08-29T09:29:11.162Z,20.05
2022-08-29T09:31:37.618Z,20.04
2022-08-29T09:34:05.426Z,20.24
2022-08-29T09:36:38.307Z,20.30
2022-08-29T09:39:12.105Z,20.41
2022-08-29T09:41:38.513Z,20.48
2022-08-29T09:44:05.217Z,20.47
2022-08-29T09:46:31.539Z,20.42
2022-08-29T09:49:10.966Z,20.31
2022-08-29T09:51:39.615Z,20.30
2022-08-29T09:54:13.859Z,20.30
2022-08-29T09:56:47.227Z,20.29
2022-08-29T09:59:18.487Z,20.48
2022-08-29T10:01:44.870Z,20.63
2022-08-29T10:04:11.237Z,20.81
2022-08-29T10:06:44.286Z,20.97
2022-08-29T10:09:24.204Z,21.12
2022-08-29T10:11:56.322Z,21.23
2022-08-29T10:14:29.615Z,21.24
2022-08-29T10:16:59.443Z,21.17
2022-08-29T10:19:27.120Z,21.05
2022-08-29T10:22:05.173Z,20.92
2022-08-29T10:24:39.235Z,20.89
2022-08-29T10:27:10.430Z,20.86
2022-08-29T10:29:46.631Z,20.91
2022-08-29T10:32:17.180Z,21.02
2022-08-29T10:34:54.490Z,21.21
2022-08-29T10:37:26.139Z,21.38
2022-08-29T10:39:55.624Z,21.53
2022-08-29T10:42:25.013Z,21.59
2022-08-29T10:44:57.568Z,21.53
2022-08-29T10:47:32.143Z,21.40
2022-08-29T10:50:02.885Z,21.47
2022-08-29T10:52:35.569Z,21.61
2022-08-29T10:55:08.047Z,21.71
2022-08-29T10:57:41.943Z,21.69
2022-08-29T11:00:09.878Z,21.63
2022-08-29T11:02:40.127Z,21.62
2022-08-29T11:05:08.975Z,21.64
2022-08-29T11:07:39.894Z,21.62
2022-08-29T11:10:10.045Z,21.57
2022-08-29T11:12:38.476Z,21.75
2022-08-29T11:15:07.333Z,21.99
2022-08-29T11:17:35.689Z,22.18
2022-08-29T11:20:04.220Z,22.28
2022-08-29T11:22:33.822Z,22.37
2022-08-29T11:25:05.577Z,22.46
2022-08-29T11:27:36.445Z,22.61
2022-08-29T11:30:05.957Z,22.74
2022-08-29T11:32:38.372Z,22.81
2022-08-29T11:35:08.651Z,22.80
2022-08-29T11:37:52.728Z,22.78
2022-08-29T11:43:18.263Z,22.79
2022-08-29T11:45:54.118Z,22.91
2022-08-29T11:48:29.946Z,23.02
2022-08-29T11:53:29.064Z,22.86
2022-08-29T11:56:10.265Z,22.91
2022-08-29T11:58:46.626Z,22.98
2022-08-29T12:01:33.049Z,23.09
2022-08-29T12:04:00.410Z,23.07
2022-08-29T12:06:31.042Z,23.08
2022-08-29T12:09:04.493Z,23.13
2022-08-29T12:11:49.598Z,23.17
2022-08-29T12:14:33.169Z,23.19
2022-08-29T12:17:04.847Z,23.18
2022-08-29T12:19:50.819Z,23.32
2022-08-29T12:22:35.894Z,23.30
2022-08-29T12:25:22.651Z,23.37
2022-08-29T12:27:57.566Z,23.38
2022-08-29T12:30:25.591Z,23.49
2022-08-29T12:32:56.335Z,23.55
2022-08-29T12:35:29.331Z,23.54
2022-08-29T12:38:05.579Z,23.50
2022-08-29T12:40:44.602Z,23.41
2022-08-29T12:43:32.137Z,23.37
2022-08-29T12:46:01.826Z,23.34
2022-08-29T12:48:31.410Z,23.30
2022-08-29T12:53:25.265Z,23.43
2022-08-29T12:55:53.503Z,23.51
2022-08-29T12:58:33.893Z,23.54
2022-08-29T13:01:02.029Z,23.51
2022-08-29T13:03:28.389Z,23.49
2022-08-29T13:06:03.413Z,23.45
2022-08-29T13:08:30.634Z,23.44
2022-08-29T13:10:58.068Z,23.40
2022-08-29T13:13:25.130Z,23.34
2022-08-29T13:15:51.634Z,23.23
2022-08-29T13:18:19.419Z,23.21
2022-08-29T13:20:47.498Z,23.16
2022-08-29T13:23:16.628Z,23.08
2022-08-29T13:25:44.427Z,23.11
2022-08-29T13:28:13.080Z,23.11
2022-08-29T13:30:40.491Z,23.14
2022-08-29T13:33:27.060Z,23.10
2022-08-29T13:36:23.054Z,23.00
2022-08-29T13:39:04.248Z,22.81
2022-08-29T13:41:30.596Z,22.72
2022-08-29T13:43:56.914Z,22.75
2022-08-29T13:46:26.546Z,22.74
2022-08-29T13:48:58.065Z,22.68
2022-08-29T13:51:25.754Z,22.69
2022-08-29T13:53:52.102Z,22.71
2022-08-29T13:56:20.393Z,22.51
2022-08-29T13:58:46.756Z,22.45
2022-08-29T14:04:15.263Z,22.47
2022-08-29T14:06:47.631Z,22.51
2022-08-29T14:09:15.635Z,22.57
2022-08-29T14:11:41.968Z,22.69
2022-08-29T14:14:08.345Z,22.63
2022-08-29T14:16:34.716Z,22.55
2022-08-29T14:19:01.039Z,22.53
2022-08-29T14:21:27.342Z,22.56
2022-08-29T14:23:54.981Z,22.51
2022-08-29T14:26:21.667Z,22.52
2022-08-29T14:28:48.293Z,22.47
2022-08-29T14:31:15.200Z,22.45
2022-08-29T14:33:41.699Z,22.44
2022-08-29T14:36:08.383Z,22.46
2022-08-29T14:38:34.711Z,22.48
2022-08-29T14:41:02.368Z,22.45
2022-08-29T14:43:28.678Z,22.46
2022-08-29T14:45:55.046Z,22.47
2022-08-29T14:48:21.428Z,22.52
2022-08-29T14:50:47.736Z,22.51
2022-08-29T14:53:14.063Z,22.53
2022-08-29T14:55:40.389Z,22.51
2022-08-29T14:58:08.103Z,22.71
2022-08-29T15:00:34.466Z,22.59
2022-08-29T15:03:00.843Z,22.60
2022-08-29T15:05:27.215Z,22.63
2022-08-29T15:07:53.543Z,22.65
2022-08-29T15:10:22.165Z,22.64
2022-08-29T15:12:49.614Z,22.63
2022-08-29T15:15:17.382Z,22.61
2022-08-29T15:17:44.048Z,22.62
2022-08-29T15:20:35.697Z,22.61
2022-08-29T15:22:57.600Z,22.68
2022-08-29T15:25:23.978Z,22.64
2022-08-29T15:27:50.275Z,22.58
2022-08-29T15:30:19.406Z,22.52
2022-08-29T15:32:45.743Z,22.49
2022-08-29T15:35:15.524Z,22.48
2022-08-29T15:37:41.856Z,22.48
2022-08-29T15:40:12.905Z,22.49
2022-08-29T15:42:39.615Z,22.50
2022-08-29T15:45:07.723Z,22.51
2022-08-29T15:47:36.211Z,22.55
2022-08-29T15:50:04.966Z,22.58
2022-08-29T15:52:31.410Z,22.62
2022-08-29T15:54:57.743Z,22.62
2022-08-29T15:57:24.202Z,22.66
2022-08-29T15:59:58.833Z,22.68
2022-08-29T16:02:25.584Z,22.68
2022-08-29T16:04:56.489Z,22.69
2022-08-29T16:07:23.540Z,22.70
2022-08-29T16:09:55.296Z,22.71
2022-08-29T16:12:21.629Z,22.76
2022-08-29T16:15:07.696Z,22.84
2022-08-29T16:17:34.243Z,22.90
2022-08-29T16:20:02.122Z,22.88
2022-08-29T16:22:28.846Z,22.84
2022-08-29T16:24:55.194Z,22.79
2022-08-29T16:27:21.503Z,22.78
2022-08-29T16:29:47.833Z,22.77
2022-08-29T16:32:14.159Z,22.75
2022-08-29T16:34:40.469Z,22.76
2022-08-29T16:37:08.183Z,22.75
2022-08-29T16:39:34.486Z,22.72
2022-08-29T16:42:00.805Z,22.69
2022-08-29T16:44:27.585Z,22.65
2022-08-29T16:46:53.899Z,22.60
2022-08-29T16:49:20.255Z,22.61
2022-08-29T16:51:46.584Z,22.60
2022-08-29T16:54:14.280Z,22.58
2022-08-29T16:56:40.620Z,22.55
2022-08-29T16:59:07.070Z,22.49
2022-08-29T17:01:35.042Z,22.46
2022-08-29T17:04:01.871Z,22.42
2022-08-29T17:06:28.248Z,22.37
2022-08-29T17:08:54.594Z,22.39
2022-08-29T17:11:22.644Z,22.30
2022-08-29T17:13:48.984Z,22.27
2022-08-29T17:16:15.434Z,22.24
2022-08-29T17:18:41.902Z,22.21
2022-08-29T17:21:08.387Z,22.14
2022-08-29T17:23:35.619Z,22.10
2022-08-29T17:26:03.519Z,22.08
2022-08-29T17:28:31.672Z,22.07
2022-08-29T17:30:58.090Z,22.07
2022-08-29T17:33:24.968Z,22.05
2022-08-29T17:35:51.331Z,22.04
2022-08-29T17:38:18.420Z,22.01
2022-08-29T17:40:45.286Z,22.01
2022-08-29T17:43:11.822Z,21.98
2022-08-29T17:45:39.528Z,21.95
2022-08-29T17:48:05.986Z,21.93
2022-08-29T17:50:32.516Z,21.91
2022-08-29T17:52:58.945Z,21.86
2022-08-29T17:55:25.280Z,21.80
2022-08-29T17:57:56.649Z,21.74
2022-08-29T18:00:22.983Z,21.69
2022-08-29T18:02:50.680Z,21.65
2022-08-29T18:05:17.258Z,21.60
2022-08-29T18:07:43.607Z,21.56
2022-08-29T18:10:11.131Z,21.50
2022-08-29T18:12:37.841Z,21.43
2022-08-29T18:15:04.308Z,21.34
2022-08-29T18:17:30.674Z,21.26
2022-08-29T18:19:58.390Z,21.18
2022-08-29T18:22:24.722Z,21.10
2022-08-29T18:24:51.030Z,20.99
2022-08-29T18:27:17.348Z,20.90
2022-08-29T18:29:43.692Z,20.80
2022-08-29T18:32:10.015Z,20.70
2022-08-29T18:34:36.338Z,20.64
2022-08-29T18:37:04.148Z,20.60
2022-08-29T18:39:30.443Z,20.54
2022-08-29T18:41:56.762Z,20.50
2022-08-29T18:44:24.467Z,20.46
2022-08-29T18:46:50.998Z,20.43
2022-08-29T18:49:17.832Z,20.40
2022-08-29T18:51:44.147Z,20.35
2022-08-29T18:54:14.214Z,20.31
2022-08-29T18:56:42.599Z,20.26
2022-08-29T18:59:08.919Z,20.22
2022-08-29T19:01:35.387Z,20.19
2022-08-29T19:04:01.858Z,20.16
2022-08-29T19:06:28.297Z,20.14
2022-08-29T19:08:55.534Z,20.11
2022-08-29T19:11:23.234Z,20.08
2022-08-29T19:13:52.399Z,20.04
2022-08-29T19:16:20.113Z,20.02
2022-08-29T19:18:46.535Z,19.98
2022-08-29T19:21:12.870Z,19.93
2022-08-29T19:23:40.654Z,19.89
2022-08-29T19:26:08.346Z,19.85
2022-08-29T19:28:37.479Z,19.82
2022-08-29T19:31:03.938Z,19.80
2022-08-29T19:33:30.268Z,19.79
2022-08-29T19:35:56.609Z,19.78
2022-08-29T19:38:23.070Z,19.80
2022-08-29T19:40:49.889Z,19.80
2022-08-29T19:43:17.132Z,19.79
2022-08-29T19:45:44.952Z,19.76
2022-08-29T19:48:15.338Z,19.73
2022-08-29T19:50:42.111Z,19.68
2022-08-29T19:53:08.463Z,19.64
2022-08-29T19:55:36.828Z,19.61
2022-08-29T19:58:03.154Z,19.59
2022-08-29T20:00:31.513Z,19.57
2022-08-29T20:02:59.294Z,19.53
2022-08-29T20:05:25.603Z,19.49
2022-08-29T20:07:52.100Z,19.48
2022-08-29T20:10:19.887Z,19.40
2022-08-29T20:12:48.016Z,19.35
2022-08-29T20:15:14.432Z,19.34
2022-08-29T20:17:40.862Z,19.31
2022-08-29T20:20:10.833Z,19.28
2022-08-29T20:22:37.184Z,19.27
2022-08-29T20:25:03.754Z,19.27
2022-08-29T20:27:33.933Z,19.26
2022-08-29T20:30:00.871Z,19.26
2022-08-29T20:32:27.182Z,19.23
2022-08-29T20:34:53.494Z,19.23
2022-08-29T20:37:21.167Z,19.19
2022-08-29T20:39:47.467Z,19.16
2022-08-29T20:42:14.663Z,19.09
2022-08-29T20:44:41.003Z,19.06
2022-08-29T20:47:07.816Z,19.05
2022-08-29T20:49:36.775Z,19.04
2022-08-29T20:52:04.182Z,19.03
2022-08-29T20:54:32.186Z,19.01
2022-08-29T20:56:58.485Z,19.02
2022-08-29T20:59:26.677Z,19.01
2022-08-29T21:01:53.636Z,19.00
2022-08-29T21:04:20.745Z,18.97
2022-08-29T21:06:47.639Z,18.95
2022-08-29T21:09:13.958Z,18.91
2022-08-29T21:11:41.598Z,18.89
2022-08-29T21:14:07.916Z,18.86
2022-08-29T21:16:34.311Z,18.87
2022-08-29T21:19:00.715Z,18.85
2022-08-29T21:21:27.031Z,18.82
2022-08-29T21:23:53.337Z,18.76
2022-08-29T21:26:19.671Z,18.71
2022-08-29T21:28:47.396Z,18.68
2022-08-29T21:31:14.212Z,18.63
2022-08-29T21:33:41.705Z,18.57
2022-08-29T21:36:09.607Z,18.51
2022-08-29T21:38:35.940Z,18.47
2022-08-29T21:41:02.519Z,18.40
2022-08-29T21:43:28.820Z,18.35
2022-08-29T21:45:56.474Z,18.31
2022-08-29T21:48:22.771Z,18.29
2022-08-29T21:50:53.173Z,18.27
2022-08-29T21:53:19.482Z,18.23
2022-08-29T21:55:45.778Z,18.20
2022-08-29T21:58:12.079Z,18.17
2022-08-29T22:00:38.375Z,18.16
2022-08-29T22:03:06.753Z,18.12
2022-08-29T22:05:33.616Z,18.08
2022-08-29T22:08:00.283Z,18.04
2022-08-29T22:10:28.359Z,18.03
2022-08-29T22:12:54.679Z,18.03
2022-08-29T22:15:21.039Z,18.06
2022-08-29T22:17:47.367Z,18.07
2022-08-29T22:20:15.112Z,18.09
2022-08-29T22:22:41.437Z,18.07
2022-08-29T22:25:08.095Z,18.06
2022-08-29T22:27:34.737Z,18.06
2022-08-29T22:30:01.499Z,18.08
2022-08-29T22:32:27.816Z,18.06
2022-08-29T22:35:02.091Z,18.07
2022-08-29T22:37:29.861Z,18.06
2022-08-29T22:39:56.203Z,18.05
2022-08-29T22:42:22.680Z,18.05
2022-08-29T22:45:04.769Z,18.02
2022-08-29T22:47:31.130Z,18.01
2022-08-29T22:49:57.438Z,18.00
2022-08-29T22:52:23.771Z,17.94
2022-08-29T22:54:51.447Z,17.96
2022-08-29T22:57:18.196Z,17.91
2022-08-29T22:59:45.113Z,17.89
2022-08-29T23:02:11.870Z,17.88
2022-08-29T23:04:38.471Z,17.87
2022-08-29T23:07:05.182Z,17.87
2022-08-29T23:09:35.478Z,17.82
2022-08-29T23:12:03.842Z,17.83
2022-08-29T23:14:31.620Z,17.78
2022-08-29T23:16:57.944Z,17.79
2022-08-29T23:19:24.263Z,17.73
2022-08-29T23:21:50.594Z,17.74
2022-08-29T23:24:17.659Z,17.69
2022-08-29T23:26:44.018Z,17.69
2022-08-29T23:29:11.697Z,17.68
2022-08-29T23:31:38.104Z,17.64
2022-08-29T23:34:04.571Z,17.59
2022-08-29T23:36:30.908Z,17.57
2022-08-29T23:38:57.384Z,17.52
2022-08-29T23:41:23.815Z,17.53
2022-08-29T23:43:50.130Z,17.46
2022-08-29T23:46:18.087Z,17.50
2022-08-29T23:48:44.444Z,17.48
2022-08-29T23:51:12.035Z,17.51
2022-08-29T23:53:38.362Z,17.45
2022-08-29T23:56:07.530Z,17.47
2022-08-29T23:58:33.877Z,17.51
